Liberta — V2CM3 — position and weather

sailwx.info

Track history (hours):
 
Tides and Currents Weather Stations Pressure Air Temp Water Temp Dewpoint Dewpoint Depression Visibility Wind Speed Wind Dir Waves Ship Positions

Liberta

Last reported at 2017-Mar-20 03:13 UTC. Time now 2017-Mar-25 21:32 UTC.
Position N 35°57' W 005°48'.

Length 138 m; draft 8.2 m.

Type: Cargo ship. MMSI: 305043000.

Date/timePositionNaut miles runAvg speedWind from/ knotsBaromVisibWave heightAir tempDewpointWater temp
2017-Mar-20 03:13N 35°57' W 005°48'811.5
2017-Mar-20 02:33N 35°57' W 005°39'1010.0
2017-Mar-20 01:33N 35°60' W 005°27'10 9.5
2017-Mar-20 00:34N 36°02' W 005°15'26411.9
2017-Mar-19 02:20N 36°45' E 000°09'10111.6
2017-Mar-18 17:33N 37°02' E 002°14'1312.5
2017-Mar-18 16:31N 37°04' E 002°30'1312.8
2017-Mar-18 15:28N 37°06' E 002°47'6911.6
2017-Mar-18 09:33N 37°15' E 004°12'45911.2
2017-Mar-16 16:29N 36°15' E 013°41'1010.8
2017-Mar-16 15:33N 36°10' E 013°51'1111.3
2017-Mar-16 14:33N 36°04' E 014°03'1111.4
2017-Mar-16 13:33N 35°58' E 014°15'3 3.3
2017-Mar-16 12:32N 35°57' E 014°19'0 0.0
2017-Mar-16 11:32N 35°57' E 014°19'0 0.0
2017-Mar-16 10:32N 35°57' E 014°19'0 0.0
2017-Mar-16 09:32N 35°57' E 014°19'0 0.0
2017-Mar-16 08:32N 35°57' E 014°19'0 0.0
2017-Mar-16 07:32N 35°57' E 014°19'0 0.1
2017-Mar-16 06:33N 35°57' E 014°19'4 4.2
2017-Mar-16 05:33N 35°53' E 014°19'  
Track history (hours):
 
Tides and Currents Weather Stations Pressure Air Temp Water Temp Dewpoint Dewpoint Depression Visibility Wind Speed Wind Dir Waves Ship Positions

Liberta

Last reported at 2017-Mar-20 03:13 UTC. Time now 2017-Mar-25 21:32 UTC.
Position N 35°57' W 005°48'.

Length 138 m; draft 8.2 m.

Type: Cargo ship. MMSI: 305043000.

Date/timePositionNaut miles runAvg speedWind from/ knotsBaromVisibWave heightAir tempDewpointWater temp
2017-Mar-20 03:13N 35°57' W 005°48'811.5
2017-Mar-20 02:33N 35°57' W 005°39'1010.0
2017-Mar-20 01:33N 35°60' W 005°27'10 9.5
2017-Mar-20 00:34N 36°02' W 005°15'26411.9
2017-Mar-19 02:20N 36°45' E 000°09'10111.6
2017-Mar-18 17:33N 37°02' E 002°14'1312.5
2017-Mar-18 16:31N 37°04' E 002°30'1312.8
2017-Mar-18 15:28N 37°06' E 002°47'6911.6
2017-Mar-18 09:33N 37°15' E 004°12'45911.2
2017-Mar-16 16:29N 36°15' E 013°41'1010.8
2017-Mar-16 15:33N 36°10' E 013°51'1111.3
2017-Mar-16 14:33N 36°04' E 014°03'1111.4
2017-Mar-16 13:33N 35°58' E 014°15'3 3.3
2017-Mar-16 12:32N 35°57' E 014°19'0 0.0
2017-Mar-16 11:32N 35°57' E 014°19'0 0.0
2017-Mar-16 10:32N 35°57' E 014°19'0 0.0
2017-Mar-16 09:32N 35°57' E 014°19'0 0.0
2017-Mar-16 08:32N 35°57' E 014°19'0 0.0
2017-Mar-16 07:32N 35°57' E 014°19'0 0.1
2017-Mar-16 06:33N 35°57' E 014°19'4 4.2
2017-Mar-16 05:33N 35°53' E 014°19'  

Dump ship's entire track history